Time;durP1;ratioP1;P1;durP2;ratioP2;P2;SDS_P1;SDS_P2;PMS_P1;PMS_P2;Temp;Humidity;BMP_temperature;BMP_pressure;BME280_temperature;BME280_humidity;BME280_pressure;Samples;Min_cycle;Max_cycle;Signal;HPM_P1;HPM_P2
2023/05/22 00:00:12;;;;;;;25.20;22.63;;;14.00;99.90;;;;;;5010155;28;20453;-74
2023/05/22 00:02:41;;;;;;;22.77;20.33;;;14.10;99.90;;;;;;5010059;28;20478;-73
2023/05/22 00:05:11;;;;;;;25.30;22.50;;;14.10;99.90;;;;;;5009901;28;20442;-74
2023/05/22 00:07:39;;;;;;;25.00;22.50;;;14.00;99.90;;;;;;5010157;28;20523;-74
2023/05/22 00:10:10;;;;;;;22.63;20.33;;;14.00;99.90;;;;;;5010172;28;20449;-74
2023/05/22 00:12:38;;;;;;;21.97;19.67;;;13.90;99.90;;;;;;5010086;28;20512;-74
2023/05/22 00:15:07;;;;;;;23.57;21.07;;;13.90;99.90;;;;;;5009936;28;20973;-71
2023/05/22 00:17:35;;;;;;;23.23;20.90;;;13.90;99.90;;;;;;5009634;28;20577;-73
2023/05/22 00:20:09;;;;;;;24.93;22.37;;;13.90;99.90;;;;;;5010146;28;20465;-74
2023/05/22 00:22:37;;;;;;;23.73;21.33;;;13.90;99.90;;;;;;5009613;28;20463;-73
2023/05/22 00:25:08;;;;;;;23.90;20.90;;;13.80;99.90;;;;;;5010091;28;20442;-74
2023/05/22 00:27:36;;;;;;;21.47;19.20;;;13.70;99.90;;;;;;5009675;28;20549;-74
2023/05/22 00:30:07;;;;;;;22.63;20.43;;;13.80;99.90;;;;;;5009899;28;20441;-74
2023/05/22 00:32:35;;;;;;;23.90;21.17;;;13.80;99.90;;;;;;5008284;28;20443;-74
2023/05/22 00:35:03;;;;;;;23.43;21.17;;;13.70;99.90;;;;;;5009724;28;20527;-74
2023/05/22 00:37:33;;;;;;;24.67;21.07;;;13.60;99.90;;;;;;5009612;28;20851;-72
2023/05/22 00:40:01;;;;;;;24.50;21.90;;;13.60;99.90;;;;;;5009729;28;20438;-72
2023/05/22 00:42:30;;;;;;;25.73;23.07;;;13.70;99.90;;;;;;5009654;28;20446;-72
2023/05/22 00:44:58;;;;;;;23.33;20.90;;;13.60;99.90;;;;;;5012232;28;20473;-73
2023/05/22 00:47:26;;;;;;;24.00;21.47;;;13.50;99.90;;;;;;5013501;28;20466;-73
2023/05/22 00:49:55;;;;;;;23.40;21.00;;;13.40;99.90;;;;;;5013835;28;20468;-73
2023/05/22 00:52:23;;;;;;;24.67;22.17;;;13.30;99.90;;;;;;5013421;28;20449;-73
2023/05/22 00:54:53;;;;;;;24.83;22.33;;;13.20;99.90;;;;;;5013495;28;20931;-74
2023/05/22 00:57:23;;;;;;;23.97;21.03;;;13.20;99.90;;;;;;5013419;28;20528;-73
2023/05/22 00:59:52;;;;;;;24.10;21.67;;;13.20;99.90;;;;;;5013574;28;20479;-73
2023/05/22 01:02:20;;;;;;;24.23;21.73;;;13.20;99.90;;;;;;5013019;28;20450;-73
2023/05/22 01:04:49;;;;;;;23.30;21.00;;;13.10;99.90;;;;;;5013535;28;20539;-73
2023/05/22 01:07:17;;;;;;;23.60;21.23;;;13.10;99.90;;;;;;5013310;28;20500;-73
2023/05/22 01:09:45;;;;;;;24.67;22.07;;;13.00;99.90;;;;;;5013204;28;20449;-73
2023/05/22 01:12:20;;;;;;;23.43;21.00;;;13.00;99.90;;;;;;5013452;28;20460;-74
2023/05/22 01:14:59;;;;;;;24.73;22.23;;;13.10;99.90;;;;;;5012943;28;20472;-74
2023/05/22 01:17:37;;;;;;;23.63;20.87;;;13.00;99.90;;;;;;5013353;28;20477;-73
2023/05/22 01:20:13;;;;;;;23.37;20.90;;;13.00;99.90;;;;;;5013198;28;20441;-73
2023/05/22 01:23:05;;;;;;;24.07;21.53;;;13.10;99.90;;;;;;5013055;28;20476;-73
2023/05/22 01:26:04;;;;;;;26.60;23.93;;;13.10;99.90;;;;;;5013036;28;20525;-73
2023/05/22 01:29:02;;;;;;;27.27;24.10;;;13.10;99.90;;;;;;5012986;28;20553;-73
2023/05/22 01:31:33;;;;;;;25.60;22.40;;;13.10;99.90;;;;;;5012754;28;20457;-73
2023/05/22 01:34:03;;;;;;;27.97;23.63;;;13.10;99.90;;;;;;5012801;28;21002;-73
2023/05/22 01:36:33;;;;;;;25.07;22.53;;;13.00;99.90;;;;;;5012713;28;20480;-73
2023/05/22 01:39:05;;;;;;;25.33;22.63;;;13.00;99.90;;;;;;5013002;28;20517;-73
2023/05/22 01:41:34;;;;;;;27.90;24.63;;;12.90;99.90;;;;;;5013051;28;20449;-73
2023/05/22 01:44:02;;;;;;;26.70;23.57;;;13.00;99.90;;;;;;5012634;28;20537;-72
2023/05/22 01:46:32;;;;;;;24.80;22.20;;;12.90;99.90;;;;;;5013026;28;20469;-73
2023/05/22 01:49:00;;;;;;;23.47;21.07;;;12.90;99.90;;;;;;5012711;28;20446;-73
2023/05/22 01:51:38;;;;;;;24.90;22.30;;;12.80;99.90;;;;;;5012792;28;20869;-73
2023/05/22 01:54:13;;;;;;;25.20;22.63;;;12.80;99.90;;;;;;5011862;28;20445;-74
2023/05/22 01:56:47;;;;;;;24.10;21.70;;;12.70;99.90;;;;;;5011453;28;20456;-73
2023/05/22 01:59:24;;;;;;;25.67;23.07;;;12.80;99.90;;;;;;5012483;28;20489;-73
2023/05/22 02:01:55;;;;;;;23.07;20.70;;;12.80;99.90;;;;;;5011585;28;20437;-72
2023/05/22 02:04:24;;;;;;;28.17;22.53;;;12.70;99.90;;;;;;5011772;28;20512;-73
2023/05/22 02:06:53;;;;;;;26.47;23.50;;;12.70;99.90;;;;;;5012166;28;20526;-73
2023/05/22 02:09:24;;;;;;;25.97;22.00;;;12.70;99.90;;;;;;5012224;28;20532;-73
2023/05/22 02:11:52;;;;;;;23.50;21.20;;;12.70;99.90;;;;;;5012111;28;20807;-73
2023/05/22 02:14:21;;;;;;;23.60;21.10;;;12.70;99.90;;;;;;5011910;28;20896;-73
2023/05/22 02:16:49;;;;;;;25.27;22.77;;;12.80;99.90;;;;;;5011830;28;20544;-73
2023/05/22 02:19:19;;;;;;;25.70;22.67;;;12.70;99.90;;;;;;5012186;28;20572;-73
2023/05/22 02:21:47;;;;;;;23.70;21.20;;;12.70;99.90;;;;;;5012340;28;20478;-73
2023/05/22 02:24:15;;;;;;;22.20;19.83;;;12.60;99.90;;;;;;5011761;28;20449;-73
2023/05/22 02:26:43;;;;;;;25.50;22.97;;;12.50;99.90;;;;;;5011949;28;20958;-73
2023/05/22 02:29:12;;;;;;;28.30;25.33;;;12.40;99.90;;;;;;5011650;28;20446;-73
2023/05/22 02:31:40;;;;;;;23.90;21.50;;;12.40;99.90;;;;;;5011773;28;20446;-74
2023/05/22 02:34:08;;;;;;;24.10;21.70;;;12.30;99.90;;;;;;5011365;28;20447;-73
2023/05/22 02:36:38;;;;;;;25.30;22.70;;;12.30;99.90;;;;;;5011701;28;20473;-73
2023/05/22 02:39:06;;;;;;;23.30;20.97;;;12.40;99.90;;;;;;5011691;28;20488;-73
2023/05/22 02:41:34;;;;;;;26.47;23.67;;;12.30;99.90;;;;;;5011398;28;20450;-73
2023/05/22 02:44:02;;;;;;;28.17;23.50;;;12.30;99.90;;;;;;5011185;28;20446;-73
2023/05/22 02:46:30;;;;;;;24.30;21.40;;;12.30;99.90;;;;;;5011190;28;20461;-73
2023/05/22 02:48:58;;;;;;;27.20;23.93;;;12.30;99.90;;;;;;5011484;28;20447;-73
2023/05/22 02:51:26;;;;;;;27.53;24.60;;;12.20;99.90;;;;;;5011333;28;20445;-73
2023/05/22 02:53:55;;;;;;;27.57;24.67;;;12.30;99.90;;;;;;5011078;28;20441;-73
2023/05/22 02:56:26;;;;;;;26.97;24.17;;;12.40;99.90;;;;;;5011343;28;20533;-73
2023/05/22 02:58:54;;;;;;;27.20;23.90;;;12.40;99.90;;;;;;5010852;28;20554;-73
2023/05/22 03:01:22;;;;;;;27.90;23.70;;;12.30;99.90;;;;;;5011223;28;20541;-72
2023/05/22 03:03:50;;;;;;;27.37;24.13;;;12.40;99.90;;;;;;5010626;28;20450;-73
2023/05/22 03:06:18;;;;;;;29.50;25.47;;;12.30;99.90;;;;;;5010944;28;20470;-73
2023/05/22 03:08:47;;;;;;;28.40;25.33;;;12.40;99.90;;;;;;5010852;28;20485;-73
2023/05/22 03:11:16;;;;;;;25.90;23.10;;;12.50;99.90;;;;;;5010977;28;20493;-73
2023/05/22 03:13:44;;;;;;;25.40;22.83;;;12.50;99.90;;;;;;5010641;28;20492;-73
2023/05/22 03:16:12;;;;;;;23.00;20.57;;;12.60;99.90;;;;;;5010832;28;20446;-72
2023/05/22 03:18:40;;;;;;;25.03;22.50;;;12.70;99.90;;;;;;5010774;28;20486;-73
2023/05/22 03:21:08;;;;;;;26.57;23.67;;;12.70;99.90;;;;;;5010845;28;20544;-74
2023/05/22 03:23:36;;;;;;;25.53;22.93;;;12.70;99.90;;;;;;5010595;28;20474;-73
2023/05/22 03:26:04;;;;;;;26.70;22.60;;;12.70;99.90;;;;;;5010630;28;20952;-73
2023/05/22 03:28:34;;;;;;;25.50;22.77;;;12.60;99.90;;;;;;5010917;28;20453;-73
2023/05/22 03:31:02;;;;;;;24.70;22.10;;;12.60;99.90;;;;;;5010781;28;20476;-72
2023/05/22 03:33:30;;;;;;;25.83;23.10;;;12.60;99.90;;;;;;5010335;28;20520;-72
2023/05/22 03:35:58;;;;;;;25.83;22.60;;;12.50;99.90;;;;;;5010816;28;20473;-73
2023/05/22 03:38:26;;;;;;;26.93;24.03;;;12.30;99.90;;;;;;5010274;28;20596;-73
2023/05/22 03:40:54;;;;;;;29.00;24.50;;;12.30;99.90;;;;;;5010869;28;20528;-73
2023/05/22 03:43:22;;;;;;;28.53;25.43;;;12.30;99.90;;;;;;5010445;28;20560;-72
2023/05/22 03:45:51;;;;;;;25.93;23.17;;;12.20;99.90;;;;;;5010889;28;20448;-72
2023/05/22 03:48:20;;;;;;;26.40;23.60;;;12.20;99.90;;;;;;5010671;28;20498;-72
2023/05/22 03:50:48;;;;;;;25.37;22.63;;;12.30;99.90;;;;;;5010207;28;20941;-72
2023/05/22 03:53:16;;;;;;;24.30;22.00;;;12.40;99.90;;;;;;5010365;28;20504;-72
2023/05/22 03:55:44;;;;;;;25.73;23.17;;;12.50;99.90;;;;;;5010334;28;20835;-73
2023/05/22 03:58:12;;;;;;;24.07;21.70;;;12.60;99.90;;;;;;5010340;28;20462;-73
2023/05/22 04:00:41;;;;;;;25.20;22.70;;;12.60;99.90;;;;;;5010137;28;20498;-72
2023/05/22 04:03:11;;;;;;;25.97;22.83;;;12.70;99.90;;;;;;5009578;28;20465;-73
2023/05/22 04:05:39;;;;;;;24.93;21.57;;;12.70;99.90;;;;;;5010510;28;20491;-74
2023/05/22 04:08:07;;;;;;;23.67;21.30;;;12.80;99.90;;;;;;5009964;28;20469;-73
2023/05/22 04:10:37;;;;;;;24.00;21.60;;;12.80;99.90;;;;;;5010302;28;20444;-73
2023/05/22 04:13:05;;;;;;;23.10;20.80;;;12.80;99.90;;;;;;5009623;28;20499;-73
2023/05/22 04:15:34;;;;;;;24.10;21.00;;;12.90;99.90;;;;;;5010010;28;20452;-72
2023/05/22 04:18:02;;;;;;;22.10;19.80;;;13.00;99.90;;;;;;5009353;28;20472;-72
2023/05/22 04:20:32;;;;;;;23.43;21.20;;;13.00;99.90;;;;;;5009722;28;20474;-73
2023/05/22 04:23:00;;;;;;;23.83;21.33;;;13.10;99.90;;;;;;5009736;28;21011;-73
2023/05/22 04:25:28;;;;;;;23.23;20.90;;;13.10;99.90;;;;;;5009937;28;20530;-73
2023/05/22 04:27:58;;;;;;;24.30;21.80;;;13.10;99.90;;;;;;5010218;28;20511;-73
2023/05/22 04:30:26;;;;;;;24.00;21.50;;;13.10;99.90;;;;;;5009970;28;20437;-73
2023/05/22 04:32:55;;;;;;;20.83;18.87;;;13.10;99.90;;;;;;5010125;28;20438;-73
2023/05/22 04:35:23;;;;;;;21.97;19.63;;;13.20;99.90;;;;;;5009831;28;20446;-72
2023/05/22 04:37:52;;;;;;;22.20;20.10;;;13.30;99.90;;;;;;5010208;28;20492;-72
2023/05/22 04:40:20;;;;;;;21.60;19.40;;;13.30;99.90;;;;;;5010121;28;20835;-71
2023/05/22 04:42:49;;;;;;;21.90;19.60;;;13.40;99.90;;;;;;5009621;28;20978;-70
2023/05/22 04:45:18;;;;;;;23.20;20.70;;;13.50;99.90;;;;;;5010326;28;20450;-72
2023/05/22 04:47:46;;;;;;;24.83;21.67;;;13.50;99.90;;;;;;5010062;28;20466;-69
2023/05/22 04:50:15;;;;;;;22.20;19.97;;;13.60;99.90;;;;;;5010227;28;20448;-70
2023/05/22 04:52:43;;;;;;;23.77;21.40;;;13.70;99.90;;;;;;5009744;28;20449;-71
2023/05/22 04:55:12;;;;;;;23.90;21.33;;;13.70;99.90;;;;;;5010064;28;20942;-73
2023/05/22 04:57:43;;;;;;;20.50;18.57;;;13.80;99.90;;;;;;5010580;28;20474;-72
2023/05/22 05:00:13;;;;;;;22.30;20.03;;;13.90;99.90;;;;;;5009860;28;20996;-72
2023/05/22 05:02:41;;;;;;;23.37;20.87;;;13.90;99.90;;;;;;5010120;28;20456;-71
2023/05/22 05:05:09;;;;;;;23.07;20.77;;;14.00;99.90;;;;;;5010224;28;20439;-72
2023/05/22 05:07:38;;;;;;;24.30;21.67;;;14.00;99.90;;;;;;5010103;28;20479;-71
2023/05/22 05:10:07;;;;;;;22.20;19.63;;;14.00;99.90;;;;;;5009644;28;21035;-71
2023/05/22 05:12:36;;;;;;;23.90;21.40;;;14.00;99.90;;;;;;5009720;28;20447;-73
2023/05/22 05:15:05;;;;;;;24.33;21.93;;;14.00;99.90;;;;;;5009322;28;21028;-71
2023/05/22 05:17:35;;;;;;;24.80;22.33;;;14.10;99.90;;;;;;5009920;28;20473;-72
2023/05/22 05:20:05;;;;;;;23.47;21.17;;;14.20;99.90;;;;;;5008662;28;20504;-72
2023/05/22 05:22:33;;;;;;;24.90;22.30;;;14.30;99.90;;;;;;5009856;28;21115;-70
2023/05/22 05:25:02;;;;;;;24.80;22.40;;;14.30;99.90;;;;;;5009926;28;20493;-71
2023/05/22 05:27:30;;;;;;;23.27;20.93;;;14.40;99.90;;;;;;5014260;28;21003;-72
2023/05/22 05:30:00;;;;;;;22.93;20.73;;;14.50;99.90;;;;;;5020135;28;20499;-71
2023/05/22 05:32:28;;;;;;;24.17;21.60;;;14.60;99.90;;;;;;5022809;28;20484;-73
2023/05/22 05:34:56;;;;;;;22.47;20.17;;;14.60;99.90;;;;;;5021133;28;20726;-72
2023/05/22 05:37:24;;;;;;;22.90;20.47;;;14.60;99.90;;;;;;5019505;28;20468;-71
2023/05/22 05:39:52;;;;;;;23.00;20.60;;;14.70;99.90;;;;;;5016834;28;20482;-72
2023/05/22 05:42:20;;;;;;;23.67;21.37;;;14.90;99.90;;;;;;5017919;28;20440;-72
2023/05/22 05:44:48;;;;;;;24.70;22.20;;;14.90;99.90;;;;;;5020961;28;20464;-71
2023/05/22 05:47:18;;;;;;;23.77;21.37;;;15.00;99.90;;;;;;5021627;28;20523;-72
2023/05/22 05:49:46;;;;;;;21.90;19.80;;;15.20;99.90;;;;;;5017109;28;20453;-72
2023/05/22 05:52:13;;;;;;;20.77;18.80;;;15.40;99.90;;;;;;5015343;28;20448;-74
2023/05/22 05:54:45;;;;;;;22.73;20.40;;;15.70;99.90;;;;;;5014730;28;20483;-70
2023/05/22 05:57:14;;;;;;;24.57;18.37;;;16.00;99.90;;;;;;5014717;28;20888;-73
2023/05/22 05:59:42;;;;;;;20.50;18.43;;;16.30;99.90;;;;;;5014376;28;20481;-71
2023/05/22 06:02:10;;;;;;;21.73;19.50;;;16.70;99.90;;;;;;5015683;28;20512;-73
2023/05/22 06:04:41;;;;;;;19.43;17.47;;;17.10;99.90;;;;;;5015059;28;20533;-70
2023/05/22 06:07:09;;;;;;;19.87;17.87;;;17.50;99.90;;;;;;5015653;28;20462;-71
2023/05/22 06:09:37;;;;;;;19.43;17.53;;;17.90;99.90;;;;;;5015633;28;20461;-71
2023/05/22 06:12:06;;;;;;;19.63;17.83;;;18.40;99.60;;;;;;5014747;28;20814;-70
2023/05/22 06:14:34;;;;;;;19.27;17.40;;;18.70;98.40;;;;;;5015691;28;20801;-70
2023/05/22 06:17:02;;;;;;;20.67;18.77;;;19.10;96.10;;;;;;5016371;28;20545;-70
2023/05/22 06:19:30;;;;;;;20.27;18.27;;;19.30;96.30;;;;;;5016253;28;20485;-70
2023/05/22 06:21:59;;;;;;;19.63;17.83;;;19.50;94.40;;;;;;5016918;28;20453;-70
2023/05/22 06:24:27;;;;;;;19.23;17.43;;;19.60;94.40;;;;;;5016493;28;20477;-74
2023/05/22 06:26:55;;;;;;;20.10;18.33;;;19.60;94.30;;;;;;5015803;28;20486;-70
2023/05/22 06:29:23;;;;;;;18.47;16.97;;;19.70;93.70;;;;;;5010348;28;20470;-74
2023/05/22 06:31:52;;;;;;;19.60;17.90;;;19.70;94.90;;;;;;5009292;28;21248;-75
2023/05/22 06:34:21;;;;;;;21.73;19.83;;;19.70;93.90;;;;;;5009849;28;20552;-75
2023/05/22 06:36:50;;;;;;;19.43;17.83;;;19.80;94.20;;;;;;5010351;28;20506;-75
2023/05/22 06:39:19;;;;;;;21.43;19.57;;;19.90;93.40;;;;;;5009838;28;20449;-76
2023/05/22 06:41:47;;;;;;;20.30;18.60;;;19.80;93.60;;;;;;5010873;28;20578;-77
2023/05/22 06:44:15;;;;;;;22.50;20.60;;;19.80;93.10;;;;;;5010849;28;20877;-76
2023/05/22 06:46:43;;;;;;;22.67;20.57;;;19.70;92.30;;;;;;5010109;28;20462;-76
2023/05/22 06:49:11;;;;;;;20.63;18.73;;;19.40;92.60;;;;;;5011733;28;20473;-76
2023/05/22 06:51:39;;;;;;;21.07;19.17;;;19.30;93.40;;;;;;5011733;28;20874;-76
2023/05/22 06:54:08;;;;;;;19.33;17.40;;;19.40;94.20;;;;;;5011264;28;20477;-76
2023/05/22 06:56:37;;;;;;;20.13;18.23;;;19.50;93.90;;;;;;5011445;28;20473;-76
2023/05/22 06:59:05;;;;;;;20.30;18.23;;;19.60;92.90;;;;;;5011486;28;20541;-77
2023/05/22 07:01:33;;;;;;;19.50;17.67;;;19.90;92.80;;;;;;5011496;28;20481;-76
2023/05/22 07:04:03;;;;;;;20.53;18.53;;;20.00;92.10;;;;;;5011204;28;20500;-75
2023/05/22 07:06:32;;;;;;;20.37;18.47;;;19.90;92.20;;;;;;5011105;28;20477;-75
2023/05/22 07:09:00;;;;;;;19.47;17.77;;;19.80;91.80;;;;;;5011434;28;20524;-75
2023/05/22 07:11:28;;;;;;;22.07;20.10;;;19.70;93.10;;;;;;5011172;28;20477;-75
2023/05/22 07:13:57;;;;;;;19.40;17.50;;;19.60;92.40;;;;;;5011015;28;20492;-75
2023/05/22 07:16:25;;;;;;;22.67;20.60;;;19.40;93.80;;;;;;5010986;28;20501;-75
2023/05/22 07:18:53;;;;;;;22.53;20.43;;;19.40;92.40;;;;;;5011388;28;20448;-75
2023/05/22 07:21:22;;;;;;;22.73;20.50;;;19.40;93.40;;;;;;5011052;28;20845;-75
2023/05/22 07:23:51;;;;;;;20.90;18.83;;;19.40;92.60;;;;;;5011131;28;20448;-76
2023/05/22 07:26:19;;;;;;;21.03;18.97;;;19.50;93.30;;;;;;5011368;28;20450;-74
2023/05/22 07:28:47;;;;;;;20.90;18.90;;;19.60;93.80;;;;;;5011451;28;20449;-75
2023/05/22 07:31:17;;;;;;;21.03;18.93;;;19.80;92.60;;;;;;5011228;28;20849;-75
2023/05/22 07:33:45;;;;;;;21.07;19.07;;;19.90;92.00;;;;;;5010966;28;20446;-76
2023/05/22 07:36:13;;;;;;;21.53;19.60;;;19.90;91.50;;;;;;5010895;28;20876;-76
2023/05/22 07:38:41;;;;;;;20.70;18.70;;;19.90;91.70;;;;;;5010907;28;21036;-76
2023/05/22 07:41:09;;;;;;;18.70;17.10;;;19.90;92.00;;;;;;5011079;28;20512;-75
2023/05/22 07:43:37;;;;;;;21.50;19.40;;;20.00;92.20;;;;;;5010559;28;20438;-76
2023/05/22 07:46:05;;;;;;;20.17;18.17;;;20.20;91.90;;;;;;5010546;28;20477;-76
2023/05/22 07:48:34;;;;;;;19.53;17.73;;;20.30;91.50;;;;;;5010877;28;20456;-76
2023/05/22 07:51:03;;;;;;;22.23;20.27;;;20.40;91.50;;;;;;5010830;28;20484;-75
2023/05/22 07:53:31;;;;;;;22.10;20.10;;;20.50;90.10;;;;;;5009305;28;20449;-76
2023/05/22 07:55:59;;;;;;;23.27;21.10;;;20.60;90.90;;;;;;5010752;28;20481;-76
2023/05/22 07:58:27;;;;;;;22.60;20.60;;;20.70;89.40;;;;;;5010568;28;20549;-75
2023/05/22 08:00:55;;;;;;;24.50;22.20;;;20.80;90.00;;;;;;5010498;28;21046;-76
2023/05/22 08:03:23;;;;;;;22.47;20.47;;;20.90;89.20;;;;;;5010462;28;20446;-76
2023/05/22 08:05:52;;;;;;;21.73;19.47;;;21.10;88.50;;;;;;5010683;28;20477;-76
2023/05/22 08:08:20;;;;;;;21.00;19.10;;;21.20;89.10;;;;;;5011249;28;20533;-77
2023/05/22 08:10:48;;;;;;;19.40;17.73;;;21.40;88.80;;;;;;5010030;28;20449;-76
2023/05/22 08:13:31;;;;;;;20.57;18.70;;;21.60;87.30;;;;;;5010094;28;20449;-76
2023/05/22 08:15:59;;;;;;;18.97;16.57;;;21.80;86.20;;;;;;5010510;28;20503;-76
2023/05/22 08:18:28;;;;;;;17.97;16.37;;;21.80;86.10;;;;;;5011022;28;20477;-76
2023/05/22 08:21:00;;;;;;;19.73;17.53;;;21.90;84.30;;;;;;5010668;28;20556;-76
2023/05/22 08:23:28;;;;;;;16.20;14.50;;;22.10;83.30;;;;;;5010003;28;20966;-76
2023/05/22 08:25:57;;;;;;;15.73;14.23;;;22.30;82.30;;;;;;5010817;28;20449;-77
2023/05/22 08:28:25;;;;;;;15.50;13.90;;;22.50;80.00;;;;;;5010509;28;20470;-76
2023/05/22 08:30:54;;;;;;;16.97;15.30;;;22.70;79.90;;;;;;5010443;28;20449;-76
2023/05/22 08:33:22;;;;;;;16.17;14.67;;;22.90;79.30;;;;;;5010345;28;20496;-76
2023/05/22 08:35:50;;;;;;;14.77;13.23;;;23.20;78.60;;;;;;5009869;28;20458;-76
2023/05/22 08:38:19;;;;;;;15.60;13.63;;;23.50;78.00;;;;;;5010035;28;21038;-75
2023/05/22 08:40:48;;;;;;;17.00;15.30;;;23.60;75.50;;;;;;5010407;28;20477;-76
2023/05/22 08:43:16;;;;;;;16.03;14.53;;;23.60;75.70;;;;;;5009831;28;20504;-76
2023/05/22 08:45:46;;;;;;;15.50;13.90;;;23.60;75.80;;;;;;5010689;28;20880;-76
2023/05/22 08:48:15;;;;;;;15.00;13.50;;;23.60;75.90;;;;;;5011144;28;21074;-76
2023/05/22 08:50:46;;;;;;;17.10;15.60;;;23.70;74.90;;;;;;5011324;28;21111;-76
2023/05/22 08:53:16;;;;;;;18.70;15.40;;;23.70;73.10;;;;;;5011234;28;20460;-76
2023/05/22 08:55:46;;;;;;;16.30;14.70;;;23.60;74.80;;;;;;5010150;28;20442;-76
2023/05/22 08:58:14;;;;;;;15.27;13.67;;;23.40;74.10;;;;;;5010049;28;20493;-76
2023/05/22 09:00:43;;;;;;;16.17;14.57;;;23.30;73.90;;;;;;5009981;28;20445;-76
2023/05/22 09:03:12;;;;;;;15.70;14.30;;;23.60;75.20;;;;;;5010997;28;20504;-77
2023/05/22 09:05:40;;;;;;;16.00;14.40;;;23.80;75.90;;;;;;5012442;28;20446;-77
2023/05/22 09:08:09;;;;;;;17.10;15.40;;;23.90;73.70;;;;;;5014142;28;20466;-77
2023/05/22 09:10:48;;;;;;;16.20;14.70;;;24.00;74.00;;;;;;5014369;28;20449;-76
2023/05/22 09:13:26;;;;;;;16.27;14.73;;;23.90;74.90;;;;;;5013681;28;20438;-76
2023/05/22 09:15:58;;;;;;;16.97;15.07;;;24.10;73.80;;;;;;5013926;28;20446;-76
2023/05/22 09:18:29;;;;;;;14.60;13.23;;;24.30;72.60;;;;;;5014417;28;20520;-77
2023/05/22 09:20:58;;;;;;;15.60;14.00;;;24.70;70.40;;;;;;5015721;28;20442;-77
2023/05/22 09:23:28;;;;;;;16.37;14.23;;;24.80;68.40;;;;;;5020405;28;20442;-77
2023/05/22 09:25:58;;;;;;;15.60;14.27;;;25.10;69.40;;;;;;5020261;28;20469;-76
2023/05/22 09:28:27;;;;;;;16.63;15.10;;;25.40;69.00;;;;;;5018932;28;20472;-76
2023/05/22 09:30:55;;;;;;;15.53;14.03;;;25.60;66.70;;;;;;5018711;28;20493;-76
2023/05/22 09:33:24;;;;;;;15.03;13.73;;;25.30;64.60;;;;;;5014944;28;20504;-77
2023/05/22 09:35:53;;;;;;;15.17;13.73;;;25.10;66.70;;;;;;5015823;28;20816;-78
2023/05/22 09:38:22;;;;;;;15.07;13.77;;;25.10;66.50;;;;;;5015386;28;20497;-77
2023/05/22 09:40:53;;;;;;;15.20;13.70;;;25.30;65.70;;;;;;5014272;28;20495;-77
2023/05/22 09:43:24;;;;;;;16.73;14.77;;;25.60;64.60;;;;;;5016260;28;20477;-77
2023/05/22 09:45:57;;;;;;;15.87;14.47;;;25.60;64.50;;;;;;5014666;28;20472;-78
2023/05/22 09:48:25;;;;;;;16.53;14.93;;;25.60;63.90;;;;;;5013616;28;20819;-77
2023/05/22 09:50:54;;;;;;;15.30;14.07;;;26.00;65.00;;;;;;5014291;28;20476;-78
2023/05/22 09:53:27;;;;;;;15.13;13.93;;;26.40;62.10;;;;;;5013193;28;20434;-78
2023/05/22 09:55:57;;;;;;;14.70;13.30;;;26.70;61.40;;;;;;5012950;28;20517;-77
2023/05/22 09:58:30;;;;;;;14.87;13.67;;;27.00;59.10;;;;;;5012908;28;20494;-77
2023/05/22 10:00:59;;;;;;;14.33;13.13;;;27.20;58.80;;;;;;5012774;28;20442;-77
2023/05/22 10:03:27;;;;;;;15.70;14.40;;;27.10;58.20;;;;;;5012188;28;20524;-74
2023/05/22 10:05:57;;;;;;;15.67;14.37;;;27.10;59.20;;;;;;5012594;28;20450;-74
2023/05/22 10:08:28;;;;;;;16.57;15.27;;;26.70;59.90;;;;;;5001680;28;20473;-77
2023/05/22 10:10:57;;;;;;;16.30;14.93;;;26.10;60.30;;;;;;5012254;28;20525;-77
2023/05/22 10:13:27;;;;;;;14.97;13.67;;;25.60;62.00;;;;;;5010297;28;20440;-76
2023/05/22 10:15:57;;;;;;;15.70;14.10;;;25.80;63.20;;;;;;5010326;28;20513;-77
2023/05/22 10:18:26;;;;;;;15.30;14.10;;;26.40;63.60;;;;;;5010079;28;20466;-78
2023/05/22 10:20:54;;;;;;;15.03;13.90;;;27.00;60.70;;;;;;5010248;28;20481;-76
2023/05/22 10:23:22;;;;;;;17.07;15.47;;;27.70;59.80;;;;;;5010275;28;20517;-78
2023/05/22 10:25:51;;;;;;;16.77;15.37;;;27.60;58.40;;;;;;5010658;28;20445;-77
2023/05/22 10:28:35;;;;;;;15.00;13.70;;;27.40;57.50;;;;;;5010587;28;20458;-76
2023/05/22 10:31:09;;;;;;;13.60;12.37;;;27.50;58.00;;;;;;5010083;28;20450;-76
2023/05/22 10:33:43;;;;;;;14.50;13.33;;;27.80;56.40;;;;;;5009343;28;20517;-77
2023/05/22 10:36:19;;;;;;;15.03;13.63;;;28.30;56.50;;;;;;5009831;28;20485;-77
2023/05/22 10:39:03;;;;;;;16.70;15.30;;;28.40;54.80;;;;;;5010161;28;20445;-78
2023/05/22 10:41:32;;;;;;;14.83;13.43;;;28.60;55.70;;;;;;5009862;28;20445;-78
2023/05/22 10:44:03;;;;;;;13.40;12.40;;;28.50;54.20;;;;;;5009590;28;20512;-77
2023/05/22 10:46:33;;;;;;;14.23;12.87;;;28.50;54.40;;;;;;5010207;28;20552;-78
2023/05/22 10:49:02;;;;;;;14.97;13.67;;;29.10;55.40;;;;;;5010895;28;20446;-77
2023/05/22 10:51:33;;;;;;;16.27;14.40;;;29.30;54.60;;;;;;5010171;28;20945;-76
2023/05/22 10:54:04;;;;;;;15.50;14.20;;;29.20;55.20;;;;;;5010733;28;20472;-77
2023/05/22 10:56:35;;;;;;;14.97;13.67;;;29.00;54.30;;;;;;5010642;28;20556;-77
2023/05/22 10:59:06;;;;;;;15.30;14.20;;;28.70;54.00;;;;;;5011308;28;20964;-77
2023/05/22 11:01:38;;;;;;;15.87;14.37;;;29.00;54.10;;;;;;5011523;28;20534;-76
2023/05/22 11:04:11;;;;;;;15.20;13.80;;;29.10;54.50;;;;;;5011167;28;20482;-78
2023/05/22 11:06:41;;;;;;;14.07;12.97;;;29.40;53.50;;;;;;5011504;28;20496;-78
2023/05/22 11:09:20;;;;;;;13.87;12.67;;;29.20;53.80;;;;;;5011745;28;20481;-77
2023/05/22 11:12:12;;;;;;;14.40;13.17;;;29.50;52.50;;;;;;5011373;28;20508;-77
2023/05/22 11:14:40;;;;;;;14.47;13.27;;;29.60;52.90;;;;;;5011238;28;20913;-77
2023/05/22 11:17:12;;;;;;;14.80;13.70;;;29.70;53.00;;;;;;5011567;28;20466;-78
2023/05/22 11:19:41;;;;;;;14.40;13.33;;;29.70;51.40;;;;;;5011672;28;20469;-77
2023/05/22 11:22:09;;;;;;;13.97;12.83;;;29.50;52.10;;;;;;5011245;28;20445;-77
2023/05/22 11:24:37;;;;;;;15.67;14.47;;;29.70;53.50;;;;;;5010937;28;20458;-78
2023/05/22 11:27:07;;;;;;;13.83;12.73;;;30.60;51.90;;;;;;5011032;28;20761;-76
2023/05/22 11:29:36;;;;;;;13.73;12.73;;;31.00;53.10;;;;;;5011013;28;20510;-77
2023/05/22 11:32:05;;;;;;;14.83;13.60;;;31.20;49.90;;;;;;5011248;28;20450;-79
2023/05/22 11:34:35;;;;;;;15.57;14.27;;;31.80;52.70;;;;;;5010992;28;20461;-80
2023/05/22 11:37:03;;;;;;;14.03;12.97;;;32.00;47.80;;;;;;5010699;28;20473;-78
2023/05/22 11:39:32;;;;;;;13.13;12.13;;;31.40;47.10;;;;;;5011134;28;20473;-78
2023/05/22 11:42:03;;;;;;;13.87;12.57;;;31.00;48.00;;;;;;5011037;28;21010;-77
2023/05/22 11:44:31;;;;;;;13.87;12.77;;;31.00;47.90;;;;;;5010672;28;20485;-78
2023/05/22 11:46:59;;;;;;;13.83;12.83;;;31.10;48.40;;;;;;5010886;28;20523;-77
2023/05/22 11:49:27;;;;;;;14.07;12.90;;;31.80;48.70;;;;;;5011040;28;20520;-75
2023/05/22 11:52:00;;;;;;;14.10;13.00;;;32.30;46.80;;;;;;5003393;28;21014;-77
2023/05/22 11:54:32;;;;;;;13.90;12.90;;;32.60;45.10;;;;;;5004048;28;20422;-79
2023/05/22 11:57:04;;;;;;;13.60;12.50;;;32.30;45.30;;;;;;5008747;28;20449;-78
2023/05/22 11:59:32;;;;;;;13.70;12.60;;;32.50;46.40;;;;;;5008713;28;20438;-77
2023/05/22 12:02:00;;;;;;;14.00;12.70;;;32.60;45.70;;;;;;5008483;28;20465;-77
2023/05/22 12:04:28;;;;;;;15.07;13.97;;;32.50;47.80;;;;;;5008315;28;21173;-77
2023/05/22 12:06:58;;;;;;;13.33;12.33;;;32.30;47.20;;;;;;5008673;28;20460;-76
2023/05/22 12:09:27;;;;;;;15.20;14.00;;;32.40;46.10;;;;;;5008874;28;20525;-78
2023/05/22 12:11:56;;;;;;;14.77;13.50;;;32.30;46.80;;;;;;5008893;28;20932;-77
2023/05/22 12:14:27;;;;;;;14.43;13.27;;;32.10;49.10;;;;;;5008610;28;20528;-76
2023/05/22 12:16:55;;;;;;;14.87;13.50;;;31.90;47.90;;;;;;5008926;28;20485;-76
2023/05/22 12:19:25;;;;;;;14.30;13.27;;;31.70;49.50;;;;;;5008640;28;20461;-76
2023/05/22 12:21:54;;;;;;;14.13;12.83;;;32.40;49.50;;;;;;5008478;28;20889;-75
2023/05/22 12:24:23;;;;;;;14.33;13.30;;;33.60;48.90;;;;;;5010070;28;20540;-75
2023/05/22 12:26:51;;;;;;;14.10;13.10;;;34.30;47.60;;;;;;5009914;28;20553;-76
2023/05/22 12:29:22;;;;;;;13.90;12.90;;;34.10;44.40;;;;;;5008611;28;20442;-74
2023/05/22 12:31:50;;;;;;;15.90;14.40;;;33.90;43.40;;;;;;5008391;28;20537;-77
2023/05/22 12:34:18;;;;;;;15.97;14.67;;;33.30;44.70;;;;;;5008104;28;20484;-76
2023/05/22 12:36:47;;;;;;;15.63;14.30;;;32.30;45.90;;;;;;5008074;28;20462;-77
2023/05/22 12:39:18;;;;;;;15.23;13.80;;;32.00;49.30;;;;;;5008241;28;21030;-75